SIA201 WSSS-YBCS
Flight info
| Callsign | SIA201 |
|---|---|
| Flight time | N/A |
| Altitude | 39000 |
| Route | DODSO1A DODSO T21 OBDOS M774 KEONG/N0484F410 M774 KIKEM A464 IKUMA J61 PUNIT |
| Aircraft | A359/H-SDE2E3GHIJ3J4J5LM1ORWXY/LB1D1 |
Departure
| Time | N/A |
|---|---|
| Airport | Singapore Changi Airport (WSSS) |
Arrival
| Time | 2026-04-27 08:33 |
|---|---|
| Airport | Cairns International Airport (YBCS) |
| Time | Latitude | Longitude | Altitude | Speed | Heading |
|---|---|---|---|---|---|
| 2026-04-27 06:40 | -12.33473 | 130.73582 | 40877 ft | 495 kts | 120° |
| 2026-04-27 06:40 | -12.35087 | 130.76695 | 40880 ft | 495 kts | 120° |
| 2026-04-27 06:40 | -12.38299 | 130.82888 | 40884 ft | 495 kts | 120° |
| 2026-04-27 06:41 | -12.41512 | 130.89125 | 40853 ft | 495 kts | 118° |
| 2026-04-27 06:41 | -12.44029 | 130.95712 | 40856 ft | 497 kts | 111° |
| 2026-04-27 06:42 | -12.46290 | 131.02417 | 40857 ft | 498 kts | 110° |
| 2026-04-27 06:42 | -12.48504 | 131.09109 | 40856 ft | 499 kts | 110° |
| 2026-04-27 06:43 | -12.50746 | 131.15867 | 40856 ft | 499 kts | 110° |
| 2026-04-27 06:43 | -12.52974 | 131.22574 | 40861 ft | 500 kts | 111° |
| 2026-04-27 06:44 | -12.55226 | 131.29330 | 40855 ft | 500 kts | 111° |
| 2026-04-27 06:44 | -12.57466 | 131.36052 | 40855 ft | 500 kts | 110° |
| 2026-04-27 06:45 | -12.59702 | 131.42774 | 40855 ft | 500 kts | 110° |
| 2026-04-27 06:45 | -12.61936 | 131.49502 | 40853 ft | 500 kts | 110° |
| 2026-04-27 06:46 | -12.64183 | 131.56276 | 40854 ft | 500 kts | 110° |
| 2026-04-27 06:46 | -12.66415 | 131.63011 | 40850 ft | 501 kts | 111° |
| 2026-04-27 06:47 | -12.68656 | 131.69775 | 40849 ft | 502 kts | 111° |
| 2026-04-27 06:47 | -12.70883 | 131.76525 | 40850 ft | 502 kts | 111° |
| 2026-04-27 06:48 | -12.73137 | 131.83338 | 40854 ft | 502 kts | 111° |
| 2026-04-27 06:48 | -12.75364 | 131.90075 | 40852 ft | 502 kts | 110° |
| 2026-04-27 06:49 | -12.77608 | 131.96871 | 40851 ft | 502 kts | 110° |
| 2026-04-27 06:49 | -12.79844 | 132.03656 | 40848 ft | 502 kts | 110° |
| 2026-04-27 06:50 | -12.82064 | 132.10397 | 40848 ft | 502 kts | 111° |
| 2026-04-27 06:50 | -12.84305 | 132.17212 | 40845 ft | 503 kts | 111° |
| 2026-04-27 06:51 | -12.86528 | 132.23990 | 40844 ft | 503 kts | 110° |
| 2026-04-27 06:51 | -12.88761 | 132.30792 | 40841 ft | 503 kts | 111° |
| 2026-04-27 06:52 | -12.90988 | 132.37571 | 40843 ft | 503 kts | 110° |
| 2026-04-27 06:52 | -12.93223 | 132.44386 | 40843 ft | 503 kts | 110° |
| 2026-04-27 06:53 | -12.95436 | 132.51145 | 40843 ft | 503 kts | 110° |
| 2026-04-27 06:53 | -12.97666 | 132.57967 | 40842 ft | 503 kts | 110° |
| 2026-04-27 06:54 | -12.99884 | 132.64755 | 40843 ft | 503 kts | 110° |
| 2026-04-27 06:54 | -13.02108 | 132.71570 | 40856 ft | 502 kts | 110° |
| 2026-04-27 06:55 | -13.04311 | 132.78326 | 40856 ft | 502 kts | 110° |
| 2026-04-27 06:55 | -13.06531 | 132.85140 | 40856 ft | 502 kts | 110° |
| 2026-04-27 06:56 | -13.08741 | 132.91931 | 40865 ft | 502 kts | 110° |
| 2026-04-27 06:56 | -13.10957 | 132.98747 | 40865 ft | 502 kts | 110° |
| 2026-04-27 06:57 | -13.13156 | 133.05518 | 40866 ft | 502 kts | 110° |
| 2026-04-27 06:57 | -13.15363 | 133.12320 | 40882 ft | 502 kts | 110° |
| 2026-04-27 06:58 | -13.18656 | 133.22480 | 40878 ft | 501 kts | 110° |
| 2026-04-27 06:59 | -13.20845 | 133.29246 | 40881 ft | 501 kts | 110° |
| 2026-04-27 06:59 | -13.23039 | 133.36040 | 40887 ft | 501 kts | 110° |
| 2026-04-27 07:00 | -13.25225 | 133.42813 | 40888 ft | 501 kts | 110° |
| 2026-04-27 07:00 | -13.27425 | 133.49621 | 40890 ft | 501 kts | 110° |
| 2026-04-27 07:01 | -13.29609 | 133.56391 | 40894 ft | 501 kts | 110° |
| 2026-04-27 07:01 | -13.31804 | 133.63207 | 40895 ft | 501 kts | 110° |
| 2026-04-27 07:02 | -13.33983 | 133.69982 | 40892 ft | 502 kts | 110° |
| 2026-04-27 07:02 | -13.36177 | 133.76808 | 40892 ft | 502 kts | 110° |
| 2026-04-27 07:03 | -13.38354 | 133.83589 | 40894 ft | 502 kts | 110° |
| 2026-04-27 07:03 | -13.40541 | 133.90409 | 40895 ft | 502 kts | 110° |
| 2026-04-27 07:04 | -13.42732 | 133.97246 | 40893 ft | 502 kts | 110° |
| 2026-04-27 07:04 | -13.44906 | 134.04039 | 40895 ft | 502 kts | 110° |
| 2026-04-27 07:05 | -13.47091 | 134.10872 | 40889 ft | 504 kts | 111° |
| 2026-04-27 07:05 | -13.49279 | 134.17720 | 40889 ft | 505 kts | 111° |
| 2026-04-27 07:06 | -13.51472 | 134.24593 | 40885 ft | 506 kts | 111° |
| 2026-04-27 07:06 | -13.53655 | 134.31442 | 40884 ft | 507 kts | 111° |
| 2026-04-27 07:07 | -13.55857 | 134.38359 | 40882 ft | 507 kts | 111° |
| 2026-04-27 07:07 | -13.58036 | 134.45210 | 40884 ft | 507 kts | 111° |
| 2026-04-27 07:08 | -13.60229 | 134.52111 | 40889 ft | 507 kts | 111° |
| 2026-04-27 07:08 | -13.62416 | 134.59002 | 40892 ft | 508 kts | 111° |
| 2026-04-27 07:09 | -13.64615 | 134.65935 | 40886 ft | 509 kts | 111° |
| 2026-04-27 07:09 | -13.66813 | 134.72875 | 40892 ft | 510 kts | 111° |
| 2026-04-27 07:10 | -13.69002 | 134.79794 | 40891 ft | 510 kts | 111° |
| 2026-04-27 07:10 | -13.71198 | 134.86740 | 40897 ft | 510 kts | 111° |
| 2026-04-27 07:11 | -13.73019 | 134.92508 | 40899 ft | 510 kts | 111° |
| 2026-04-27 07:11 | -13.75213 | 134.99465 | 40899 ft | 510 kts | 111° |
| 2026-04-27 07:12 | -13.77390 | 135.06373 | 40895 ft | 511 kts | 111° |
| 2026-04-27 07:12 | -13.79589 | 135.13355 | 40897 ft | 512 kts | 111° |
| 2026-04-27 07:13 | -13.81771 | 135.20296 | 40901 ft | 512 kts | 111° |
| 2026-04-27 07:13 | -13.83966 | 135.27287 | 40906 ft | 512 kts | 111° |
| 2026-04-27 07:14 | -13.86157 | 135.34269 | 40907 ft | 512 kts | 111° |
| 2026-04-27 07:14 | -13.88332 | 135.41208 | 40902 ft | 512 kts | 111° |
| 2026-04-27 07:15 | -13.90522 | 135.48203 | 40915 ft | 513 kts | 111° |
| 2026-04-27 07:15 | -13.92711 | 135.55203 | 40908 ft | 513 kts | 111° |
| 2026-04-27 07:16 | -13.94886 | 135.62169 | 40914 ft | 513 kts | 111° |
| 2026-04-27 07:16 | -13.97078 | 135.69177 | 40910 ft | 514 kts | 111° |
| 2026-04-27 07:17 | -13.99268 | 135.76177 | 40909 ft | 514 kts | 111° |
| 2026-04-27 07:17 | -14.01460 | 135.83196 | 40913 ft | 515 kts | 111° |
| 2026-04-27 07:18 | -14.03641 | 135.90189 | 40913 ft | 515 kts | 111° |
| 2026-04-27 07:18 | -14.05825 | 135.97203 | 40917 ft | 515 kts | 111° |
| 2026-04-27 07:19 | -14.08022 | 136.04266 | 40908 ft | 516 kts | 111° |
| 2026-04-27 07:19 | -14.10211 | 136.11309 | 40904 ft | 516 kts | 111° |
| 2026-04-27 07:20 | -14.12389 | 136.18327 | 40913 ft | 516 kts | 111° |
| 2026-04-27 07:20 | -14.14586 | 136.25413 | 40906 ft | 517 kts | 111° |
| 2026-04-27 07:21 | -14.16761 | 136.32434 | 40907 ft | 517 kts | 111° |
| 2026-04-27 07:21 | -14.18953 | 136.39519 | 40912 ft | 518 kts | 111° |
| 2026-04-27 07:22 | -14.21132 | 136.46571 | 40908 ft | 519 kts | 111° |
| 2026-04-27 07:22 | -14.23319 | 136.53658 | 40912 ft | 519 kts | 111° |
| 2026-04-27 07:23 | -14.25512 | 136.60771 | 40913 ft | 520 kts | 111° |
| 2026-04-27 07:23 | -14.27697 | 136.67867 | 40911 ft | 520 kts | 111° |
| 2026-04-27 07:24 | -14.29871 | 136.74936 | 40909 ft | 520 kts | 111° |
| 2026-04-27 07:24 | -14.32063 | 136.82069 | 40909 ft | 521 kts | 111° |
| 2026-04-27 07:25 | -14.34259 | 136.89223 | 40911 ft | 522 kts | 111° |
| 2026-04-27 07:25 | -14.36438 | 136.96333 | 40911 ft | 522 kts | 111° |
| 2026-04-27 07:26 | -14.38627 | 137.03486 | 40918 ft | 523 kts | 111° |
| 2026-04-27 07:26 | -14.40809 | 137.10619 | 40919 ft | 524 kts | 111° |
| 2026-04-27 07:27 | -14.43000 | 137.17793 | 40916 ft | 524 kts | 111° |
| 2026-04-27 07:27 | -14.45191 | 137.24978 | 40916 ft | 524 kts | 111° |
| 2026-04-27 07:28 | -14.47367 | 137.32119 | 40914 ft | 524 kts | 111° |
| 2026-04-27 07:28 | -14.49543 | 137.39269 | 40918 ft | 524 kts | 111° |
| 2026-04-27 07:29 | -14.51736 | 137.46480 | 40922 ft | 525 kts | 111° |
| 2026-04-27 07:29 | -14.53915 | 137.53659 | 40919 ft | 525 kts | 111° |
| 2026-04-27 07:30 | -14.56104 | 137.60878 | 40908 ft | 526 kts | 111° |
| 2026-04-27 07:30 | -14.58286 | 137.68081 | 40912 ft | 527 kts | 111° |
| 2026-04-27 07:31 | -14.60471 | 137.75303 | 40907 ft | 527 kts | 111° |
| 2026-04-27 07:31 | -14.62646 | 137.82504 | 40918 ft | 528 kts | 111° |
| 2026-04-27 07:32 | -14.64857 | 137.89820 | 40911 ft | 536 kts | 111° |
| 2026-04-27 07:32 | -14.67078 | 137.97186 | 40910 ft | 541 kts | 111° |
| 2026-04-27 07:33 | -14.69322 | 138.04646 | 40910 ft | 543 kts | 111° |
| 2026-04-27 07:33 | -14.71555 | 138.12080 | 40911 ft | 544 kts | 111° |
| 2026-04-27 07:34 | -14.73800 | 138.19560 | 40915 ft | 544 kts | 111° |
| 2026-04-27 07:34 | -14.76033 | 138.27007 | 40913 ft | 545 kts | 111° |
| 2026-04-27 07:35 | -14.78278 | 138.34501 | 40910 ft | 545 kts | 111° |
| 2026-04-27 07:35 | -14.80520 | 138.41997 | 40931 ft | 545 kts | 111° |
| 2026-04-27 07:36 | -14.82752 | 138.49466 | 40909 ft | 547 kts | 111° |
| 2026-04-27 07:36 | -14.84932 | 138.56772 | 40908 ft | 548 kts | 111° |
| 2026-04-27 07:37 | -14.87174 | 138.64299 | 40909 ft | 548 kts | 111° |
| 2026-04-27 07:37 | -14.89406 | 138.71798 | 40911 ft | 549 kts | 111° |
| 2026-04-27 07:38 | -14.91643 | 138.79326 | 40909 ft | 549 kts | 111° |
| 2026-04-27 07:38 | -14.93890 | 138.86899 | 40916 ft | 549 kts | 111° |
| 2026-04-27 07:39 | -14.96119 | 138.94434 | 40903 ft | 550 kts | 111° |
| 2026-04-27 07:39 | -14.98364 | 139.02015 | 40914 ft | 550 kts | 111° |
| 2026-04-27 07:40 | -15.00609 | 139.09604 | 40921 ft | 550 kts | 111° |
| 2026-04-27 07:40 | -15.02837 | 139.17152 | 40911 ft | 551 kts | 111° |
| 2026-04-27 07:41 | -15.05077 | 139.24749 | 40909 ft | 551 kts | 111° |
| 2026-04-27 07:41 | -15.07306 | 139.32323 | 40914 ft | 551 kts | 111° |
| 2026-04-27 07:42 | -15.09544 | 139.39938 | 40916 ft | 551 kts | 111° |
| 2026-04-27 07:42 | -15.11767 | 139.47508 | 40915 ft | 551 kts | 111° |
| 2026-04-27 07:43 | -15.13989 | 139.55091 | 40903 ft | 552 kts | 111° |
| 2026-04-27 07:43 | -15.16213 | 139.62684 | 40905 ft | 552 kts | 111° |
| 2026-04-27 07:44 | -15.18445 | 139.70317 | 40921 ft | 553 kts | 111° |
| 2026-04-27 07:44 | -15.20669 | 139.77935 | 40911 ft | 553 kts | 111° |
| 2026-04-27 07:45 | -15.22894 | 139.85566 | 40915 ft | 553 kts | 111° |
| 2026-04-27 07:45 | -15.25106 | 139.93161 | 40914 ft | 553 kts | 111° |
| 2026-04-27 07:46 | -15.27328 | 140.00804 | 40913 ft | 554 kts | 111° |
| 2026-04-27 07:46 | -15.29550 | 140.08457 | 40911 ft | 554 kts | 111° |
| 2026-04-27 07:47 | -15.31758 | 140.16069 | 40912 ft | 554 kts | 111° |
| 2026-04-27 07:47 | -15.33968 | 140.23711 | 40914 ft | 555 kts | 110° |
| 2026-04-27 07:48 | -15.36189 | 140.31400 | 40910 ft | 555 kts | 111° |
| 2026-04-27 07:48 | -15.38406 | 140.39068 | 40910 ft | 555 kts | 111° |
| 2026-04-27 07:49 | -15.40613 | 140.46711 | 40913 ft | 555 kts | 110° |
| 2026-04-27 07:49 | -15.42831 | 140.54414 | 40906 ft | 556 kts | 110° |
| 2026-04-27 07:50 | -15.45030 | 140.62061 | 40908 ft | 556 kts | 110° |
| 2026-04-27 07:50 | -15.47238 | 140.69751 | 40909 ft | 556 kts | 110° |
| 2026-04-27 07:51 | -15.49430 | 140.77394 | 40907 ft | 557 kts | 110° |
| 2026-04-27 07:51 | -15.51635 | 140.85093 | 40906 ft | 557 kts | 110° |
| 2026-04-27 07:52 | -15.53821 | 140.92739 | 40903 ft | 557 kts | 110° |
| 2026-04-27 07:52 | -15.56028 | 141.00468 | 40902 ft | 557 kts | 110° |
| 2026-04-27 07:53 | -15.58234 | 141.08202 | 40899 ft | 558 kts | 110° |
| 2026-04-27 07:53 | -15.60420 | 141.15882 | 40901 ft | 558 kts | 110° |
| 2026-04-27 07:54 | -15.62624 | 141.23634 | 40901 ft | 558 kts | 110° |
| 2026-04-27 07:54 | -15.64809 | 141.31332 | 40897 ft | 558 kts | 110° |
| 2026-04-27 07:55 | -15.67004 | 141.39071 | 40897 ft | 559 kts | 110° |
| 2026-04-27 07:55 | -15.69189 | 141.46788 | 40897 ft | 560 kts | 110° |
| 2026-04-27 07:56 | -15.71390 | 141.54578 | 40895 ft | 560 kts | 110° |
| 2026-04-27 07:56 | -15.73574 | 141.62316 | 40895 ft | 560 kts | 110° |
| 2026-04-27 07:57 | -15.75763 | 141.70083 | 40894 ft | 560 kts | 110° |
| 2026-04-27 07:57 | -15.77946 | 141.77841 | 40897 ft | 560 kts | 110° |
| 2026-04-27 07:58 | -15.80119 | 141.85572 | 40896 ft | 560 kts | 110° |
| 2026-04-27 07:58 | -15.82299 | 141.93341 | 40895 ft | 560 kts | 110° |
| 2026-04-27 07:59 | -15.84477 | 142.01129 | 40901 ft | 560 kts | 110° |
| 2026-04-27 07:59 | -15.87361 | 142.11460 | 40900 ft | 561 kts | 109° |
| 2026-04-27 08:00 | -15.89536 | 142.19268 | 40900 ft | 561 kts | 109° |
| 2026-04-27 08:00 | -15.91700 | 142.27047 | 40900 ft | 561 kts | 109° |
| 2026-04-27 08:01 | -15.93868 | 142.34849 | 40899 ft | 562 kts | 109° |
| 2026-04-27 08:01 | -15.96022 | 142.42615 | 40897 ft | 562 kts | 109° |
| 2026-04-27 08:02 | -15.98190 | 142.50440 | 40898 ft | 562 kts | 109° |
| 2026-04-27 08:02 | -16.00344 | 142.58231 | 40897 ft | 563 kts | 109° |
| 2026-04-27 08:03 | -16.02511 | 142.66078 | 40900 ft | 563 kts | 109° |
| 2026-04-27 08:03 | -16.04667 | 142.73898 | 40900 ft | 563 kts | 109° |
| 2026-04-27 08:04 | -16.06818 | 142.81712 | 40898 ft | 564 kts | 109° |
| 2026-04-27 08:04 | -16.08978 | 142.89571 | 40898 ft | 564 kts | 109° |
| 2026-04-27 08:05 | -16.11125 | 142.97392 | 40900 ft | 564 kts | 109° |
| 2026-04-27 08:05 | -16.13268 | 143.05214 | 40901 ft | 565 kts | 108° |
| 2026-04-27 08:06 | -16.15424 | 143.13094 | 40900 ft | 565 kts | 108° |
| 2026-04-27 08:06 | -16.17579 | 143.20982 | 40901 ft | 565 kts | 108° |
| 2026-04-27 08:07 | -16.19717 | 143.28811 | 40904 ft | 566 kts | 108° |
| 2026-04-27 08:07 | -16.21864 | 143.36690 | 40904 ft | 566 kts | 108° |
| 2026-04-27 08:08 | -16.24009 | 143.44579 | 40901 ft | 566 kts | 108° |
| 2026-04-27 08:08 | -16.26142 | 143.52438 | 40896 ft | 566 kts | 108° |
| 2026-04-27 08:09 | -16.28287 | 143.60352 | 40908 ft | 567 kts | 108° |
| 2026-04-27 08:09 | -16.30421 | 143.68239 | 40766 ft | 565 kts | 108° |
| 2026-04-27 08:10 | -16.31488 | 143.72190 | 40511 ft | 566 kts | 108° |
| 2026-04-27 08:10 | -16.32547 | 143.76107 | 40318 ft | 567 kts | 107° |
| 2026-04-27 08:10 | -16.33619 | 143.80080 | 40074 ft | 568 kts | 107° |
| 2026-04-27 08:10 | -16.34689 | 143.84051 | 39839 ft | 569 kts | 107° |
| 2026-04-27 08:11 | -16.35746 | 143.87973 | 39621 ft | 569 kts | 107° |
| 2026-04-27 08:11 | -16.36820 | 143.91967 | 39418 ft | 569 kts | 107° |
| 2026-04-27 08:11 | -16.37884 | 143.95925 | 38837 ft | 565 kts | 107° |
| 2026-04-27 08:11 | -16.38947 | 143.99881 | 37735 ft | 564 kts | 107° |
| 2026-04-27 08:12 | -16.39991 | 144.03767 | 36703 ft | 567 kts | 107° |
| 2026-04-27 08:12 | -16.41061 | 144.07752 | 35962 ft | 574 kts | 107° |
| 2026-04-27 08:12 | -16.42142 | 144.11785 | 35227 ft | 577 kts | 107° |
| 2026-04-27 08:12 | -16.43223 | 144.15822 | 34252 ft | 578 kts | 107° |
| 2026-04-27 08:13 | -16.44297 | 144.19838 | 33167 ft | 581 kts | 107° |
| 2026-04-27 08:13 | -16.45384 | 144.23903 | 32220 ft | 578 kts | 107° |
| 2026-04-27 08:13 | -16.46460 | 144.27930 | 31629 ft | 574 kts | 107° |
| 2026-04-27 08:13 | -16.47527 | 144.31927 | 30756 ft | 568 kts | 107° |
| 2026-04-27 08:14 | -16.48566 | 144.35824 | 29837 ft | 563 kts | 107° |
| 2026-04-27 08:14 | -16.49611 | 144.39744 | 28876 ft | 557 kts | 107° |
| 2026-04-27 08:14 | -16.50647 | 144.43630 | 28143 ft | 548 kts | 107° |
| 2026-04-27 08:14 | -16.51656 | 144.47423 | 27482 ft | 539 kts | 107° |
| 2026-04-27 08:15 | -16.52633 | 144.51095 | 26690 ft | 522 kts | 106° |
| 2026-04-27 08:15 | -16.53589 | 144.54695 | 25369 ft | 511 kts | 106° |
| 2026-04-27 08:15 | -16.54526 | 144.58226 | 24250 ft | 498 kts | 106° |
| 2026-04-27 08:15 | -16.55445 | 144.61687 | 23658 ft | 495 kts | 106° |
| 2026-04-27 08:16 | -16.56357 | 144.65124 | 22988 ft | 487 kts | 106° |
| 2026-04-27 08:16 | -16.57258 | 144.68527 | 22068 ft | 485 kts | 106° |
| 2026-04-27 08:16 | -16.58144 | 144.71873 | 21266 ft | 482 kts | 106° |
| 2026-04-27 08:16 | -16.59033 | 144.75234 | 20510 ft | 477 kts | 106° |
| 2026-04-27 08:17 | -16.59914 | 144.78568 | 19764 ft | 472 kts | 106° |
| 2026-04-27 08:17 | -16.60780 | 144.81846 | 19032 ft | 468 kts | 106° |
| 2026-04-27 08:17 | -16.61641 | 144.85105 | 18280 ft | 465 kts | 106° |
| 2026-04-27 08:17 | -16.62489 | 144.88351 | 17446 ft | 461 kts | 105° |
| 2026-04-27 08:18 | -16.62902 | 144.91636 | 16692 ft | 456 kts | 89° |
| 2026-04-27 08:18 | -16.62640 | 144.94905 | 15943 ft | 451 kts | 83° |
| 2026-04-27 08:18 | -16.62227 | 144.98089 | 15213 ft | 446 kts | 82° |
| 2026-04-27 08:18 | -16.61810 | 145.01282 | 14512 ft | 441 kts | 83° |
| 2026-04-27 08:19 | -16.61408 | 145.04427 | 13783 ft | 436 kts | 83° |
| 2026-04-27 08:19 | -16.61017 | 145.07526 | 13010 ft | 430 kts | 83° |
| 2026-04-27 08:19 | -16.60631 | 145.10610 | 12294 ft | 423 kts | 83° |
| 2026-04-27 08:19 | -16.60257 | 145.13613 | 11873 ft | 409 kts | 83° |
| 2026-04-27 08:20 | -16.59899 | 145.16488 | 11635 ft | 391 kts | 84° |
| 2026-04-27 08:20 | -16.59558 | 145.19237 | 11427 ft | 373 kts | 84° |
| 2026-04-27 08:20 | -16.59233 | 145.21843 | 11278 ft | 356 kts | 84° |
| 2026-04-27 08:20 | -16.58922 | 145.24349 | 11114 ft | 340 kts | 84° |
| 2026-04-27 08:21 | -16.58624 | 145.26747 | 10972 ft | 326 kts | 83° |
| 2026-04-27 08:21 | -16.58335 | 145.29051 | 10762 ft | 314 kts | 84° |
| 2026-04-27 08:21 | -16.58061 | 145.31282 | 10436 ft | 306 kts | 84° |
| 2026-04-27 08:21 | -16.57791 | 145.33458 | 10134 ft | 300 kts | 84° |
| 2026-04-27 08:22 | -16.57526 | 145.35588 | 9797 ft | 293 kts | 84° |
| 2026-04-27 08:22 | -16.57267 | 145.37673 | 9318 ft | 291 kts | 84° |
| 2026-04-27 08:22 | -16.57007 | 145.39750 | 8878 ft | 289 kts | 84° |
| 2026-04-27 08:22 | -16.56750 | 145.41806 | 8516 ft | 284 kts | 84° |
| 2026-04-27 08:23 | -16.56496 | 145.43834 | 8166 ft | 281 kts | 84° |
| 2026-04-27 08:23 | -16.56244 | 145.45850 | 7824 ft | 280 kts | 84° |
| 2026-04-27 08:23 | -16.55994 | 145.47853 | 7468 ft | 278 kts | 84° |
| 2026-04-27 08:23 | -16.55745 | 145.49842 | 7133 ft | 276 kts | 84° |
| 2026-04-27 08:24 | -16.55497 | 145.51823 | 6793 ft | 275 kts | 84° |
| 2026-04-27 08:24 | -16.55250 | 145.53785 | 6471 ft | 271 kts | 85° |
| 2026-04-27 08:24 | -16.55005 | 145.55727 | 6096 ft | 268 kts | 85° |
| 2026-04-27 08:24 | -16.54902 | 145.57648 | 5754 ft | 263 kts | 98° |
| 2026-04-27 08:25 | -16.55541 | 145.59378 | 5446 ft | 258 kts | 129° |
| 2026-04-27 08:25 | -16.56875 | 145.60591 | 5221 ft | 255 kts | 146° |
| 2026-04-27 08:25 | -16.58405 | 145.61522 | 5035 ft | 254 kts | 152° |
| 2026-04-27 08:25 | -16.59991 | 145.62293 | 4687 ft | 249 kts | 155° |
| 2026-04-27 08:26 | -16.61589 | 145.63011 | 4216 ft | 250 kts | 156° |
| 2026-04-27 08:26 | -16.63176 | 145.63725 | 4024 ft | 247 kts | 155° |
| 2026-04-27 08:26 | -16.64702 | 145.64410 | 4002 ft | 229 kts | 155° |
| 2026-04-27 08:26 | -16.66113 | 145.65045 | 3999 ft | 212 kts | 155° |
| 2026-04-27 08:27 | -16.67413 | 145.65634 | 4003 ft | 195 kts | 155° |
| 2026-04-27 08:27 | -16.68617 | 145.66183 | 3891 ft | 184 kts | 155° |
| 2026-04-27 08:27 | -16.69765 | 145.66709 | 3678 ft | 178 kts | 155° |
| 2026-04-27 08:27 | -16.70898 | 145.67223 | 3376 ft | 176 kts | 155° |
| 2026-04-27 08:28 | -16.71998 | 145.67724 | 3094 ft | 173 kts | 156° |
| 2026-04-27 08:28 | -16.73098 | 145.68224 | 2859 ft | 167 kts | 155° |
| 2026-04-27 08:28 | -16.74130 | 145.68694 | 2648 ft | 161 kts | 156° |
| 2026-04-27 08:28 | -16.75142 | 145.69154 | 2436 ft | 154 kts | 156° |
| 2026-04-27 08:29 | -16.76079 | 145.69581 | 2231 ft | 140 kts | 157° |
| 2026-04-27 08:29 | -16.76930 | 145.69968 | 2058 ft | 127 kts | 158° |
| 2026-04-27 08:29 | -16.77706 | 145.70320 | 1898 ft | 118 kts | 156° |
| 2026-04-27 08:29 | -16.78450 | 145.70658 | 1757 ft | 117 kts | 155° |
| 2026-04-27 08:30 | -16.79195 | 145.70997 | 1595 ft | 117 kts | 155° |
| 2026-04-27 08:30 | -16.79937 | 145.71334 | 1437 ft | 116 kts | 155° |
| 2026-04-27 08:30 | -16.80677 | 145.71672 | 1293 ft | 116 kts | 156° |
| 2026-04-27 08:30 | -16.81413 | 145.72006 | 1129 ft | 114 kts | 156° |
| 2026-04-27 08:31 | -16.82138 | 145.72336 | 986 ft | 113 kts | 153° |
| 2026-04-27 08:31 | -16.82864 | 145.72667 | 808 ft | 115 kts | 154° |
| 2026-04-27 08:31 | -16.83612 | 145.72971 | 692 ft | 117 kts | 154° |
| 2026-04-27 08:31 | -16.84354 | 145.73328 | 533 ft | 117 kts | 155° |
| 2026-04-27 08:32 | -16.85094 | 145.73678 | 373 ft | 116 kts | 159° |
| 2026-04-27 08:32 | -16.85841 | 145.74013 | 233 ft | 119 kts | 155° |
| 2026-04-27 08:32 | -16.86602 | 145.74362 | 34 ft | 121 kts | 157° |
| 2026-04-27 08:32 | -16.87335 | 145.74696 | 9 ft | 97 kts | 156° |
| 2026-04-27 08:33 | -16.87686 | 145.74855 | 26 ft | 12 kts | 156° |
| 2026-04-27 08:33 | -16.87712 | 145.74910 | 30 ft | 14 kts | 85° |
| 2026-04-27 08:33 | -16.87694 | 145.74982 | 27 ft | 0 kts | 68° |
| 2026-04-27 08:35 | -16.87694 | 145.74983 | 26 ft | 1 kts | 68° |
| 2026-04-27 08:35 | -16.87689 | 145.74996 | 25 ft | 4 kts | 67° |
| 2026-04-27 08:35 | -16.87662 | 145.75026 | 27 ft | 7 kts | 28° |
| 2026-04-27 08:35 | -16.87610 | 145.75016 | 25 ft | 10 kts | 338° |
| 2026-04-27 08:36 | -16.87536 | 145.74983 | 27 ft | 13 kts | 336° |
| 2026-04-27 08:36 | -16.87435 | 145.74970 | 7 ft | 17 kts | 11° |
| 2026-04-27 08:36 | -16.87353 | 145.75000 | 10 ft | 11 kts | 29° |
| 2026-04-27 08:36 | -16.87302 | 145.75069 | 9 ft | 14 kts | 65° |
| 2026-04-27 08:37 | -16.87260 | 145.75169 | 9 ft | 16 kts | 67° |
| 2026-04-27 08:37 | -16.87211 | 145.75284 | 7 ft | 15 kts | 66° |
| 2026-04-27 08:37 | -16.87192 | 145.75332 | 9 ft | 0 kts | 66° |
| 2026-04-27 08:38 | -16.87192 | 145.75333 | 9 ft | 1 kts | 67° |
| 2026-04-27 08:38 | -16.87199 | 145.75363 | 7 ft | 7 kts | 124° |
| 2026-04-27 08:38 | -16.87226 | 145.75383 | 9 ft | 4 kts | 152° |
| 2026-04-27 08:38 | -16.87254 | 145.75397 | 9 ft | 0 kts | 155° |
| 2026-04-27 08:39 | -16.87257 | 145.75398 | 9 ft | 0 kts | 155° |